sensor_id;sensor_type;location;lat;lon;timestamp;P1;durP1;ratioP1;P2;durP2;ratioP2
17175;SDS011;8703;48.996;9.594;2023-04-01T00:00:08;1.63;;;0.50;;
17175;SDS011;8703;48.996;9.594;2023-04-01T00:02:38;2.10;;;0.43;;
17175;SDS011;8703;48.996;9.594;2023-04-01T00:05:07;1.33;;;0.60;;
17175;SDS011;8703;48.996;9.594;2023-04-01T00:07:35;2.60;;;0.47;;
17175;SDS011;8703;48.996;9.594;2023-04-01T00:10:02;1.67;;;0.50;;
17175;SDS011;8703;48.996;9.594;2023-04-01T00:12:30;3.33;;;0.60;;
17175;SDS011;8703;48.996;9.594;2023-04-01T00:14:57;2.13;;;0.40;;
17175;SDS011;8703;48.996;9.594;2023-04-01T00:17:25;4.33;;;0.60;;
17175;SDS011;8703;48.996;9.594;2023-04-01T00:19:55;1.23;;;0.40;;
17175;SDS011;8703;48.996;9.594;2023-04-01T00:22:23;1.20;;;0.50;;
17175;SDS011;8703;48.996;9.594;2023-04-01T00:24:51;2.53;;;0.50;;
17175;SDS011;8703;48.996;9.594;2023-04-01T00:27:18;2.17;;;0.70;;
17175;SDS011;8703;48.996;9.594;2023-04-01T00:29:46;1.33;;;0.40;;
17175;SDS011;8703;48.996;9.594;2023-04-01T00:32:14;3.47;;;0.70;;
17175;SDS011;8703;48.996;9.594;2023-04-01T00:34:41;1.53;;;0.53;;
17175;SDS011;8703;48.996;9.594;2023-04-01T00:37:10;1.73;;;0.80;;
17175;SDS011;8703;48.996;9.594;2023-04-01T00:39:37;1.60;;;0.60;;
17175;SDS011;8703;48.996;9.594;2023-04-01T00:42:05;2.03;;;1.00;;
17175;SDS011;8703;48.996;9.594;2023-04-01T00:44:33;1.07;;;0.60;;
17175;SDS011;8703;48.996;9.594;2023-04-01T00:47:00;2.07;;;0.50;;
17175;SDS011;8703;48.996;9.594;2023-04-01T00:49:29;4.73;;;1.03;;
17175;SDS011;8703;48.996;9.594;2023-04-01T00:51:59;3.37;;;0.63;;
17175;SDS011;8703;48.996;9.594;2023-04-01T00:54:29;1.97;;;0.60;;
17175;SDS011;8703;48.996;9.594;2023-04-01T00:56:58;2.30;;;0.60;;
17175;SDS011;8703;48.996;9.594;2023-04-01T00:59:27;1.50;;;0.60;;
17175;SDS011;8703;48.996;9.594;2023-04-01T01:01:57;1.20;;;0.50;;
17175;SDS011;8703;48.996;9.594;2023-04-01T01:04:26;1.50;;;0.50;;
17175;SDS011;8703;48.996;9.594;2023-04-01T01:06:59;1.40;;;0.50;;
17175;SDS011;8703;48.996;9.594;2023-04-01T01:09:33;2.03;;;0.57;;
17175;SDS011;8703;48.996;9.594;2023-04-01T01:12:06;1.77;;;0.60;;
17175;SDS011;8703;48.996;9.594;2023-04-01T01:14:40;2.53;;;0.67;;
17175;SDS011;8703;48.996;9.594;2023-04-01T01:17:20;3.30;;;0.60;;
17175;SDS011;8703;48.996;9.594;2023-04-01T01:20:01;2.37;;;0.67;;
17175;SDS011;8703;48.996;9.594;2023-04-01T01:22:46;3.40;;;0.50;;
17175;SDS011;8703;48.996;9.594;2023-04-01T01:25:25;2.10;;;0.70;;
17175;SDS011;8703;48.996;9.594;2023-04-01T01:28:00;2.00;;;0.80;;
17175;SDS011;8703;48.996;9.594;2023-04-01T01:30:37;2.13;;;0.60;;
17175;SDS011;8703;48.996;9.594;2023-04-01T01:33:20;3.67;;;0.77;;
17175;SDS011;8703;48.996;9.594;2023-04-01T01:36:02;1.80;;;0.73;;
17175;SDS011;8703;48.996;9.594;2023-04-01T01:38:31;2.40;;;0.63;;
17175;SDS011;8703;48.996;9.594;2023-04-01T01:41:00;1.30;;;0.53;;
17175;SDS011;8703;48.996;9.594;2023-04-01T01:43:30;3.27;;;0.67;;
17175;SDS011;8703;48.996;9.594;2023-04-01T01:46:00;2.23;;;0.70;;
17175;SDS011;8703;48.996;9.594;2023-04-01T01:48:29;1.87;;;1.07;;
17175;SDS011;8703;48.996;9.594;2023-04-01T01:50:57;2.10;;;0.50;;
17175;SDS011;8703;48.996;9.594;2023-04-01T01:53:26;2.37;;;0.57;;
17175;SDS011;8703;48.996;9.594;2023-04-01T01:55:53;2.77;;;0.70;;
17175;SDS011;8703;48.996;9.594;2023-04-01T01:58:22;4.10;;;0.77;;
17175;SDS011;8703;48.996;9.594;2023-04-01T02:00:51;1.53;;;0.40;;
17175;SDS011;8703;48.996;9.594;2023-04-01T02:03:21;2.37;;;0.80;;
17175;SDS011;8703;48.996;9.594;2023-04-01T02:05:50;2.70;;;0.80;;
17175;SDS011;8703;48.996;9.594;2023-04-01T02:08:20;2.33;;;0.53;;
17175;SDS011;8703;48.996;9.594;2023-04-01T02:10:51;2.73;;;0.80;;
17175;SDS011;8703;48.996;9.594;2023-04-01T02:13:22;1.10;;;0.60;;
17175;SDS011;8703;48.996;9.594;2023-04-01T02:15:53;5.17;;;0.70;;
17175;SDS011;8703;48.996;9.594;2023-04-01T02:18:25;2.30;;;0.60;;
17175;SDS011;8703;48.996;9.594;2023-04-01T02:20:52;2.77;;;0.70;;
17175;SDS011;8703;48.996;9.594;2023-04-01T02:23:21;1.20;;;0.60;;
17175;SDS011;8703;48.996;9.594;2023-04-01T02:25:50;3.10;;;0.60;;
17175;SDS011;8703;48.996;9.594;2023-04-01T02:28:17;2.10;;;0.70;;
17175;SDS011;8703;48.996;9.594;2023-04-01T02:30:45;1.63;;;0.57;;
17175;SDS011;8703;48.996;9.594;2023-04-01T02:33:14;2.00;;;0.70;;
17175;SDS011;8703;48.996;9.594;2023-04-01T02:35:42;2.87;;;0.60;;
17175;SDS011;8703;48.996;9.594;2023-04-01T02:38:09;3.27;;;0.60;;
17175;SDS011;8703;48.996;9.594;2023-04-01T02:40:44;1.77;;;0.57;;
17175;SDS011;8703;48.996;9.594;2023-04-01T02:43:14;2.17;;;0.90;;
17175;SDS011;8703;48.996;9.594;2023-04-01T02:45:42;4.97;;;1.10;;
17175;SDS011;8703;48.996;9.594;2023-04-01T02:48:09;1.93;;;0.97;;
17175;SDS011;8703;48.996;9.594;2023-04-01T02:50:37;3.33;;;0.67;;
17175;SDS011;8703;48.996;9.594;2023-04-01T02:53:05;2.37;;;0.70;;
17175;SDS011;8703;48.996;9.594;2023-04-01T02:55:32;1.97;;;0.80;;
17175;SDS011;8703;48.996;9.594;2023-04-01T02:58:00;4.60;;;0.70;;
17175;SDS011;8703;48.996;9.594;2023-04-01T03:00:29;1.43;;;0.70;;
17175;SDS011;8703;48.996;9.594;2023-04-01T03:02:56;2.23;;;0.80;;
17175;SDS011;8703;48.996;9.594;2023-04-01T03:05:24;4.00;;;0.70;;
17175;SDS011;8703;48.996;9.594;2023-04-01T03:07:51;2.87;;;0.70;;
17175;SDS011;8703;48.996;9.594;2023-04-01T03:10:18;1.33;;;0.60;;
17175;SDS011;8703;48.996;9.594;2023-04-01T03:12:46;2.07;;;0.60;;
17175;SDS011;8703;48.996;9.594;2023-04-01T03:15:13;1.97;;;0.50;;
17175;SDS011;8703;48.996;9.594;2023-04-01T03:17:43;1.47;;;0.77;;
17175;SDS011;8703;48.996;9.594;2023-04-01T03:20:11;2.57;;;0.80;;
17175;SDS011;8703;48.996;9.594;2023-04-01T03:22:39;1.70;;;0.60;;
17175;SDS011;8703;48.996;9.594;2023-04-01T03:25:07;1.10;;;0.50;;
17175;SDS011;8703;48.996;9.594;2023-04-01T03:27:35;3.30;;;0.70;;
17175;SDS011;8703;48.996;9.594;2023-04-01T03:30:03;2.63;;;0.60;;
17175;SDS011;8703;48.996;9.594;2023-04-01T03:32:31;0.70;;;0.50;;
17175;SDS011;8703;48.996;9.594;2023-04-01T03:35:00;3.77;;;0.70;;
17175;SDS011;8703;48.996;9.594;2023-04-01T03:37:27;1.30;;;0.47;;
17175;SDS011;8703;48.996;9.594;2023-04-01T03:39:54;1.43;;;0.50;;
17175;SDS011;8703;48.996;9.594;2023-04-01T03:42:22;2.30;;;0.50;;
17175;SDS011;8703;48.996;9.594;2023-04-01T03:44:49;0.70;;;0.40;;
17175;SDS011;8703;48.996;9.594;2023-04-01T03:47:16;1.63;;;0.40;;
17175;SDS011;8703;48.996;9.594;2023-04-01T03:49:43;3.33;;;0.40;;
17175;SDS011;8703;48.996;9.594;2023-04-01T03:52:12;1.90;;;0.40;;
17175;SDS011;8703;48.996;9.594;2023-04-01T03:54:40;1.27;;;0.43;;
17175;SDS011;8703;48.996;9.594;2023-04-01T03:57:07;2.43;;;0.57;;
17175;SDS011;8703;48.996;9.594;2023-04-01T03:59:34;1.80;;;0.50;;
17175;SDS011;8703;48.996;9.594;2023-04-01T04:02:02;0.80;;;0.40;;
17175;SDS011;8703;48.996;9.594;2023-04-01T04:04:30;0.93;;;0.40;;
17175;SDS011;8703;48.996;9.594;2023-04-01T04:06:57;0.90;;;0.40;;
17175;SDS011;8703;48.996;9.594;2023-04-01T04:09:26;1.00;;;0.40;;
17175;SDS011;8703;48.996;9.594;2023-04-01T04:11:55;2.50;;;0.30;;
17175;SDS011;8703;48.996;9.594;2023-04-01T04:14:23;2.57;;;0.50;;
17175;SDS011;8703;48.996;9.594;2023-04-01T04:16:51;2.67;;;0.60;;
17175;SDS011;8703;48.996;9.594;2023-04-01T04:19:18;1.13;;;0.60;;
17175;SDS011;8703;48.996;9.594;2023-04-01T04:21:46;3.00;;;0.70;;
17175;SDS011;8703;48.996;9.594;2023-04-01T04:24:13;1.13;;;0.57;;
17175;SDS011;8703;48.996;9.594;2023-04-01T04:26:42;1.17;;;0.60;;
17175;SDS011;8703;48.996;9.594;2023-04-01T04:29:09;1.00;;;0.40;;
17175;SDS011;8703;48.996;9.594;2023-04-01T04:31:36;2.83;;;0.50;;
17175;SDS011;8703;48.996;9.594;2023-04-01T04:34:03;1.30;;;0.40;;
17175;SDS011;8703;48.996;9.594;2023-04-01T04:36:31;2.70;;;0.50;;
17175;SDS011;8703;48.996;9.594;2023-04-01T04:38:58;1.73;;;0.40;;
17175;SDS011;8703;48.996;9.594;2023-04-01T04:41:27;0.73;;;0.43;;
17175;SDS011;8703;48.996;9.594;2023-04-01T04:43:56;0.57;;;0.40;;
17175;SDS011;8703;48.996;9.594;2023-04-01T04:46:24;1.37;;;0.43;;
17175;SDS011;8703;48.996;9.594;2023-04-01T04:48:51;1.77;;;0.40;;
17175;SDS011;8703;48.996;9.594;2023-04-01T04:51:19;1.10;;;0.30;;
17175;SDS011;8703;48.996;9.594;2023-04-01T04:53:47;1.07;;;0.40;;
17175;SDS011;8703;48.996;9.594;2023-04-01T04:56:17;1.10;;;0.63;;
17175;SDS011;8703;48.996;9.594;2023-04-01T04:58:44;1.87;;;0.70;;
17175;SDS011;8703;48.996;9.594;2023-04-01T05:01:14;1.13;;;0.50;;
17175;SDS011;8703;48.996;9.594;2023-04-01T05:03:42;2.17;;;0.70;;
17175;SDS011;8703;48.996;9.594;2023-04-01T05:06:11;0.63;;;0.63;;
17175;SDS011;8703;48.996;9.594;2023-04-01T05:08:40;3.90;;;0.60;;
17175;SDS011;8703;48.996;9.594;2023-04-01T05:11:09;2.33;;;0.40;;
17175;SDS011;8703;48.996;9.594;2023-04-01T05:13:38;2.57;;;0.50;;
17175;SDS011;8703;48.996;9.594;2023-04-01T05:16:07;0.90;;;0.60;;
17175;SDS011;8703;48.996;9.594;2023-04-01T05:18:36;1.30;;;0.60;;
17175;SDS011;8703;48.996;9.594;2023-04-01T05:21:04;0.90;;;0.50;;
17175;SDS011;8703;48.996;9.594;2023-04-01T05:23:32;2.93;;;0.80;;
17175;SDS011;8703;48.996;9.594;2023-04-01T05:26:02;0.80;;;0.60;;
17175;SDS011;8703;48.996;9.594;2023-04-01T05:28:29;2.80;;;1.20;;
17175;SDS011;8703;48.996;9.594;2023-04-01T05:30:57;3.83;;;0.70;;
17175;SDS011;8703;48.996;9.594;2023-04-01T05:33:25;1.30;;;0.43;;
17175;SDS011;8703;48.996;9.594;2023-04-01T05:35:54;0.60;;;0.50;;
17175;SDS011;8703;48.996;9.594;2023-04-01T05:38:22;0.73;;;0.40;;
17175;SDS011;8703;48.996;9.594;2023-04-01T05:40:49;0.87;;;0.40;;
17175;SDS011;8703;48.996;9.594;2023-04-01T05:43:17;0.90;;;0.50;;
17175;SDS011;8703;48.996;9.594;2023-04-01T05:45:44;0.63;;;0.40;;
17175;SDS011;8703;48.996;9.594;2023-04-01T05:48:11;1.57;;;0.50;;
17175;SDS011;8703;48.996;9.594;2023-04-01T05:50:40;2.90;;;0.60;;
17175;SDS011;8703;48.996;9.594;2023-04-01T05:53:09;1.87;;;1.10;;
17175;SDS011;8703;48.996;9.594;2023-04-01T05:55:36;0.80;;;0.50;;
17175;SDS011;8703;48.996;9.594;2023-04-01T05:58:03;4.20;;;1.03;;
17175;SDS011;8703;48.996;9.594;2023-04-01T06:00:31;2.13;;;0.70;;
17175;SDS011;8703;48.996;9.594;2023-04-01T06:02:58;2.87;;;0.50;;
17175;SDS011;8703;48.996;9.594;2023-04-01T06:05:27;2.70;;;0.70;;
17175;SDS011;8703;48.996;9.594;2023-04-01T06:07:57;3.37;;;0.80;;
17175;SDS011;8703;48.996;9.594;2023-04-01T06:10:30;2.97;;;0.60;;
17175;SDS011;8703;48.996;9.594;2023-04-01T06:13:03;2.23;;;0.80;;
17175;SDS011;8703;48.996;9.594;2023-04-01T06:15:35;2.83;;;0.57;;
17175;SDS011;8703;48.996;9.594;2023-04-01T06:18:11;2.27;;;0.70;;
17175;SDS011;8703;48.996;9.594;2023-04-01T06:20:57;1.70;;;0.70;;
17175;SDS011;8703;48.996;9.594;2023-04-01T06:23:40;1.70;;;0.50;;
17175;SDS011;8703;48.996;9.594;2023-04-01T06:26:20;1.73;;;0.50;;
17175;SDS011;8703;48.996;9.594;2023-04-01T06:28:59;1.37;;;0.73;;
17175;SDS011;8703;48.996;9.594;2023-04-01T06:31:54;2.43;;;0.70;;
17175;SDS011;8703;48.996;9.594;2023-04-01T06:34:39;1.93;;;0.60;;
17175;SDS011;8703;48.996;9.594;2023-04-01T06:37:20;2.00;;;0.60;;
17175;SDS011;8703;48.996;9.594;2023-04-01T06:39:57;1.67;;;0.60;;
17175;SDS011;8703;48.996;9.594;2023-04-01T06:42:36;1.13;;;0.57;;
17175;SDS011;8703;48.996;9.594;2023-04-01T06:45:15;1.90;;;0.80;;
17175;SDS011;8703;48.996;9.594;2023-04-01T06:47:57;1.60;;;0.60;;
17175;SDS011;8703;48.996;9.594;2023-04-01T06:50:30;2.23;;;0.70;;
17175;SDS011;8703;48.996;9.594;2023-04-01T06:53:02;2.40;;;0.63;;
17175;SDS011;8703;48.996;9.594;2023-04-01T06:55:36;2.30;;;0.70;;
17175;SDS011;8703;48.996;9.594;2023-04-01T06:58:11;2.20;;;0.70;;
17175;SDS011;8703;48.996;9.594;2023-04-01T07:00:44;3.23;;;0.73;;
17175;SDS011;8703;48.996;9.594;2023-04-01T07:03:16;2.30;;;0.60;;
17175;SDS011;8703;48.996;9.594;2023-04-01T07:05:46;1.83;;;0.73;;
17175;SDS011;8703;48.996;9.594;2023-04-01T07:08:16;1.60;;;0.70;;
17175;SDS011;8703;48.996;9.594;2023-04-01T07:10:47;1.60;;;0.70;;
17175;SDS011;8703;48.996;9.594;2023-04-01T07:13:18;2.07;;;0.80;;
17175;SDS011;8703;48.996;9.594;2023-04-01T07:15:50;2.00;;;0.60;;
17175;SDS011;8703;48.996;9.594;2023-04-01T07:18:25;1.60;;;0.70;;
17175;SDS011;8703;48.996;9.594;2023-04-01T07:20:57;1.70;;;0.60;;
17175;SDS011;8703;48.996;9.594;2023-04-01T07:23:26;5.13;;;0.70;;
17175;SDS011;8703;48.996;9.594;2023-04-01T07:25:55;2.33;;;0.80;;
17175;SDS011;8703;48.996;9.594;2023-04-01T07:28:27;4.00;;;0.93;;
17175;SDS011;8703;48.996;9.594;2023-04-01T07:31:01;2.33;;;0.50;;
17175;SDS011;8703;48.996;9.594;2023-04-01T07:33:37;2.77;;;0.57;;
17175;SDS011;8703;48.996;9.594;2023-04-01T07:36:10;6.17;;;2.70;;
17175;SDS011;8703;48.996;9.594;2023-04-01T07:38:41;3.27;;;1.07;;
17175;SDS011;8703;48.996;9.594;2023-04-01T07:41:16;2.60;;;1.27;;
17175;SDS011;8703;48.996;9.594;2023-04-01T07:43:56;0.93;;;0.60;;
17175;SDS011;8703;48.996;9.594;2023-04-01T07:46:33;3.93;;;0.70;;
17175;SDS011;8703;48.996;9.594;2023-04-01T07:49:14;3.27;;;0.70;;
17175;SDS011;8703;48.996;9.594;2023-04-01T07:51:45;1.83;;;0.80;;
17175;SDS011;8703;48.996;9.594;2023-04-01T07:54:19;2.90;;;0.50;;
17175;SDS011;8703;48.996;9.594;2023-04-01T07:56:51;3.53;;;1.13;;
17175;SDS011;8703;48.996;9.594;2023-04-01T07:59:27;3.70;;;0.53;;
17175;SDS011;8703;48.996;9.594;2023-04-01T08:02:02;0.97;;;0.60;;
17175;SDS011;8703;48.996;9.594;2023-04-01T08:04:39;0.70;;;0.50;;
17175;SDS011;8703;48.996;9.594;2023-04-01T08:07:15;1.40;;;0.53;;
17175;SDS011;8703;48.996;9.594;2023-04-01T08:09:45;4.00;;;1.07;;
17175;SDS011;8703;48.996;9.594;2023-04-01T08:12:20;2.23;;;0.80;;
17175;SDS011;8703;48.996;9.594;2023-04-01T08:14:56;3.23;;;0.57;;
17175;SDS011;8703;48.996;9.594;2023-04-01T08:17:31;2.63;;;0.70;;
17175;SDS011;8703;48.996;9.594;2023-04-01T08:20:07;1.00;;;0.60;;
17175;SDS011;8703;48.996;9.594;2023-04-01T08:22:41;2.77;;;0.70;;
17175;SDS011;8703;48.996;9.594;2023-04-01T08:25:10;1.60;;;0.80;;
17175;SDS011;8703;48.996;9.594;2023-04-01T08:27:43;3.17;;;1.30;;
17175;SDS011;8703;48.996;9.594;2023-04-01T08:30:16;3.33;;;0.70;;
17175;SDS011;8703;48.996;9.594;2023-04-01T08:32:46;2.27;;;0.93;;
17175;SDS011;8703;48.996;9.594;2023-04-01T08:35:17;2.50;;;0.90;;
17175;SDS011;8703;48.996;9.594;2023-04-01T08:37:47;2.50;;;1.10;;
17175;SDS011;8703;48.996;9.594;2023-04-01T08:43:25;2.13;;;1.10;;
17175;SDS011;8703;48.996;9.594;2023-04-01T08:49:29;5.27;;;1.00;;
17175;SDS011;8703;48.996;9.594;2023-04-01T08:52:09;1.40;;;0.63;;
17175;SDS011;8703;48.996;9.594;2023-04-01T08:55:20;4.20;;;0.87;;
17175;SDS011;8703;48.996;9.594;2023-04-01T08:58:05;4.17;;;0.70;;
17175;SDS011;8703;48.996;9.594;2023-04-01T09:00:43;5.40;;;0.93;;
17175;SDS011;8703;48.996;9.594;2023-04-01T09:12:15;2.97;;;0.90;;
17175;SDS011;8703;48.996;9.594;2023-04-01T09:14:54;0.80;;;0.60;;
17175;SDS011;8703;48.996;9.594;2023-04-01T09:17:58;0.20;;;0.20;;
17175;SDS011;8703;48.996;9.594;2023-04-01T09:20:42;0.30;;;0.30;;
17175;SDS011;8703;48.996;9.594;2023-04-01T09:23:27;0.20;;;0.20;;
17175;SDS011;8703;48.996;9.594;2023-04-01T09:26:11;0.10;;;0.10;;
17175;SDS011;8703;48.996;9.594;2023-04-01T09:28:54;0.20;;;0.20;;
17175;SDS011;8703;48.996;9.594;2023-04-01T09:31:32;0.20;;;0.20;;
17175;SDS011;8703;48.996;9.594;2023-04-01T09:34:14;0.20;;;0.20;;
17175;SDS011;8703;48.996;9.594;2023-04-01T09:36:53;0.10;;;0.10;;
17175;SDS011;8703;48.996;9.594;2023-04-01T09:39:37;0.20;;;0.20;;
17175;SDS011;8703;48.996;9.594;2023-04-01T09:42:13;0.20;;;0.20;;
17175;SDS011;8703;48.996;9.594;2023-04-01T09:44:48;0.30;;;0.30;;
17175;SDS011;8703;48.996;9.594;2023-04-01T09:47:28;0.10;;;0.10;;
17175;SDS011;8703;48.996;9.594;2023-04-01T09:50:16;0.20;;;0.20;;
17175;SDS011;8703;48.996;9.594;2023-04-01T09:52:54;0.30;;;0.30;;
17175;SDS011;8703;48.996;9.594;2023-04-01T09:55:46;0.20;;;0.20;;
17175;SDS011;8703;48.996;9.594;2023-04-01T09:58:43;0.20;;;0.20;;
17175;SDS011;8703;48.996;9.594;2023-04-01T10:01:53;0.20;;;0.20;;
17175;SDS011;8703;48.996;9.594;2023-04-01T10:04:45;0.20;;;0.20;;
17175;SDS011;8703;48.996;9.594;2023-04-01T10:07:33;0.20;;;0.20;;
17175;SDS011;8703;48.996;9.594;2023-04-01T10:13:20;0.20;;;0.20;;
17175;SDS011;8703;48.996;9.594;2023-04-01T10:16:00;0.27;;;0.27;;
17175;SDS011;8703;48.996;9.594;2023-04-01T10:19:03;0.20;;;0.20;;
17175;SDS011;8703;48.996;9.594;2023-04-01T10:22:12;0.83;;;0.83;;
17175;SDS011;8703;48.996;9.594;2023-04-01T10:24:55;0.23;;;0.23;;
17175;SDS011;8703;48.996;9.594;2023-04-01T10:27:49;0.20;;;0.20;;
17175;SDS011;8703;48.996;9.594;2023-04-01T10:36:20;0.20;;;0.20;;
17175;SDS011;8703;48.996;9.594;2023-04-01T10:39:21;0.30;;;0.30;;
17175;SDS011;8703;48.996;9.594;2023-04-01T10:42:28;0.30;;;0.30;;
17175;SDS011;8703;48.996;9.594;2023-04-01T10:45:41;0.20;;;0.20;;
17175;SDS011;8703;48.996;9.594;2023-04-01T10:48:34;0.20;;;0.20;;
17175;SDS011;8703;48.996;9.594;2023-04-01T10:51:16;0.20;;;0.20;;
17175;SDS011;8703;48.996;9.594;2023-04-01T10:54:35;0.20;;;0.20;;
17175;SDS011;8703;48.996;9.594;2023-04-01T10:57:20;0.20;;;0.20;;
17175;SDS011;8703;48.996;9.594;2023-04-01T11:00:04;0.20;;;0.20;;
17175;SDS011;8703;48.996;9.594;2023-04-01T11:03:01;0.20;;;0.20;;
17175;SDS011;8703;48.996;9.594;2023-04-01T11:05:59;0.13;;;0.13;;
17175;SDS011;8703;48.996;9.594;2023-04-01T11:11:59;0.20;;;0.20;;
17175;SDS011;8703;48.996;9.594;2023-04-01T11:14:37;0.10;;;0.10;;
17175;SDS011;8703;48.996;9.594;2023-04-01T11:17:27;0.20;;;0.20;;
17175;SDS011;8703;48.996;9.594;2023-04-01T11:23:39;0.20;;;0.20;;
17175;SDS011;8703;48.996;9.594;2023-04-01T11:26:20;0.30;;;0.30;;
17175;SDS011;8703;48.996;9.594;2023-04-01T11:29:09;0.20;;;0.20;;
17175;SDS011;8703;48.996;9.594;2023-04-01T11:31:55;0.10;;;0.10;;
17175;SDS011;8703;48.996;9.594;2023-04-01T11:34:35;0.30;;;0.30;;
17175;SDS011;8703;48.996;9.594;2023-04-01T11:37:16;0.20;;;0.20;;
17175;SDS011;8703;48.996;9.594;2023-04-01T11:39:57;0.17;;;0.17;;
17175;SDS011;8703;48.996;9.594;2023-04-01T11:42:32;0.20;;;0.20;;
17175;SDS011;8703;48.996;9.594;2023-04-01T11:45:08;0.30;;;0.30;;
17175;SDS011;8703;48.996;9.594;2023-04-01T11:50:52;0.20;;;0.20;;
17175;SDS011;8703;48.996;9.594;2023-04-01T11:53:29;0.20;;;0.20;;
17175;SDS011;8703;48.996;9.594;2023-04-01T11:56:08;0.27;;;0.27;;
17175;SDS011;8703;48.996;9.594;2023-04-01T11:58:57;0.20;;;0.20;;
17175;SDS011;8703;48.996;9.594;2023-04-01T12:01:43;0.20;;;0.20;;
17175;SDS011;8703;48.996;9.594;2023-04-01T12:07:05;0.20;;;0.20;;
17175;SDS011;8703;48.996;9.594;2023-04-01T12:09:40;0.30;;;0.30;;
17175;SDS011;8703;48.996;9.594;2023-04-01T12:12:16;0.20;;;0.20;;
17175;SDS011;8703;48.996;9.594;2023-04-01T12:14:50;0.20;;;0.20;;
17175;SDS011;8703;48.996;9.594;2023-04-01T12:17:27;0.30;;;0.30;;
17175;SDS011;8703;48.996;9.594;2023-04-01T12:20:01;0.30;;;0.30;;
17175;SDS011;8703;48.996;9.594;2023-04-01T12:22:46;0.30;;;0.30;;
17175;SDS011;8703;48.996;9.594;2023-04-01T12:25:22;0.20;;;0.20;;
17175;SDS011;8703;48.996;9.594;2023-04-01T12:28:04;0.17;;;0.17;;
17175;SDS011;8703;48.996;9.594;2023-04-01T12:30:45;0.20;;;0.20;;
17175;SDS011;8703;48.996;9.594;2023-04-01T12:33:27;0.30;;;0.30;;
17175;SDS011;8703;48.996;9.594;2023-04-01T12:36:13;0.20;;;0.20;;
17175;SDS011;8703;48.996;9.594;2023-04-01T12:39:05;0.20;;;0.20;;
17175;SDS011;8703;48.996;9.594;2023-04-01T12:41:59;0.10;;;0.10;;
17175;SDS011;8703;48.996;9.594;2023-04-01T12:44:39;0.20;;;0.20;;
17175;SDS011;8703;48.996;9.594;2023-04-01T12:50:19;0.20;;;0.20;;
17175;SDS011;8703;48.996;9.594;2023-04-01T12:52:58;0.20;;;0.20;;
17175;SDS011;8703;48.996;9.594;2023-04-01T12:55:42;0.17;;;0.17;;
17175;SDS011;8703;48.996;9.594;2023-04-01T13:01:30;0.20;;;0.20;;
17175;SDS011;8703;48.996;9.594;2023-04-01T13:04:20;0.20;;;0.20;;
17175;SDS011;8703;48.996;9.594;2023-04-01T13:07:14;0.27;;;0.27;;
17175;SDS011;8703;48.996;9.594;2023-04-01T13:09:57;0.30;;;0.30;;
17175;SDS011;8703;48.996;9.594;2023-04-01T13:12:44;0.20;;;0.20;;
17175;SDS011;8703;48.996;9.594;2023-04-01T13:15:42;0.20;;;0.20;;
17175;SDS011;8703;48.996;9.594;2023-04-01T13:18:19;0.30;;;0.30;;
17175;SDS011;8703;48.996;9.594;2023-04-01T13:20:53;0.20;;;0.20;;
17175;SDS011;8703;48.996;9.594;2023-04-01T13:23:30;0.20;;;0.20;;
17175;SDS011;8703;48.996;9.594;2023-04-01T13:26:05;0.10;;;0.10;;
17175;SDS011;8703;48.996;9.594;2023-04-01T13:28:38;0.20;;;0.20;;
17175;SDS011;8703;48.996;9.594;2023-04-01T13:31:08;0.20;;;0.20;;
17175;SDS011;8703;48.996;9.594;2023-04-01T13:33:42;0.10;;;0.10;;
17175;SDS011;8703;48.996;9.594;2023-04-01T13:36:16;0.30;;;0.30;;
17175;SDS011;8703;48.996;9.594;2023-04-01T13:41:54;0.30;;;0.30;;
17175;SDS011;8703;48.996;9.594;2023-04-01T13:44:33;0.13;;;0.13;;
17175;SDS011;8703;48.996;9.594;2023-04-01T13:47:06;0.20;;;0.20;;
17175;SDS011;8703;48.996;9.594;2023-04-01T13:49:48;0.20;;;0.20;;
17175;SDS011;8703;48.996;9.594;2023-04-01T13:52:42;0.20;;;0.20;;
17175;SDS011;8703;48.996;9.594;2023-04-01T13:55:24;0.30;;;0.30;;
17175;SDS011;8703;48.996;9.594;2023-04-01T13:58:04;0.20;;;0.20;;
17175;SDS011;8703;48.996;9.594;2023-04-01T14:00:45;0.20;;;0.20;;
17175;SDS011;8703;48.996;9.594;2023-04-01T14:03:27;0.20;;;0.20;;
17175;SDS011;8703;48.996;9.594;2023-04-01T14:06:14;0.23;;;0.23;;
17175;SDS011;8703;48.996;9.594;2023-04-01T14:11:47;0.10;;;0.10;;
17175;SDS011;8703;48.996;9.594;2023-04-01T14:14:19;0.13;;;0.13;;
17175;SDS011;8703;48.996;9.594;2023-04-01T14:17:03;0.20;;;0.20;;
17175;SDS011;8703;48.996;9.594;2023-04-01T14:19:50;0.20;;;0.20;;
17175;SDS011;8703;48.996;9.594;2023-04-01T14:22:30;0.20;;;0.20;;
17175;SDS011;8703;48.996;9.594;2023-04-01T14:25:16;0.30;;;0.30;;
17175;SDS011;8703;48.996;9.594;2023-04-01T14:27:54;0.20;;;0.20;;
17175;SDS011;8703;48.996;9.594;2023-04-01T14:30:28;0.10;;;0.10;;
17175;SDS011;8703;48.996;9.594;2023-04-01T14:33:04;0.20;;;0.20;;
17175;SDS011;8703;48.996;9.594;2023-04-01T14:35:38;0.10;;;0.10;;
17175;SDS011;8703;48.996;9.594;2023-04-01T14:38:24;0.20;;;0.20;;
17175;SDS011;8703;48.996;9.594;2023-04-01T14:41:09;0.20;;;0.20;;
17175;SDS011;8703;48.996;9.594;2023-04-01T14:43:58;0.20;;;0.20;;
17175;SDS011;8703;48.996;9.594;2023-04-01T14:46:52;0.13;;;0.13;;
17175;SDS011;8703;48.996;9.594;2023-04-01T14:49:41;0.13;;;0.13;;
17175;SDS011;8703;48.996;9.594;2023-04-01T14:52:11;0.20;;;0.20;;
17175;SDS011;8703;48.996;9.594;2023-04-01T14:54:44;0.17;;;0.17;;
17175;SDS011;8703;48.996;9.594;2023-04-01T14:57:12;0.20;;;0.20;;
17175;SDS011;8703;48.996;9.594;2023-04-01T14:59:46;0.20;;;0.20;;
17175;SDS011;8703;48.996;9.594;2023-04-01T15:02:22;0.20;;;0.20;;
17175;SDS011;8703;48.996;9.594;2023-04-01T15:05:02;0.20;;;0.20;;
17175;SDS011;8703;48.996;9.594;2023-04-01T15:07:50;0.20;;;0.20;;
17175;SDS011;8703;48.996;9.594;2023-04-01T15:10:48;0.20;;;0.20;;
17175;SDS011;8703;48.996;9.594;2023-04-01T15:13:49;0.17;;;0.17;;
17175;SDS011;8703;48.996;9.594;2023-04-01T15:16:25;0.20;;;0.20;;
17175;SDS011;8703;48.996;9.594;2023-04-01T15:19:00;0.20;;;0.20;;
17175;SDS011;8703;48.996;9.594;2023-04-01T15:21:36;0.20;;;0.20;;
17175;SDS011;8703;48.996;9.594;2023-04-01T15:24:24;0.20;;;0.20;;
17175;SDS011;8703;48.996;9.594;2023-04-01T15:27:00;0.17;;;0.17;;
17175;SDS011;8703;48.996;9.594;2023-04-01T15:32:30;0.50;;;0.50;;
17175;SDS011;8703;48.996;9.594;2023-04-01T15:35:09;0.40;;;0.40;;
17175;SDS011;8703;48.996;9.594;2023-04-01T15:37:47;0.20;;;0.20;;
17175;SDS011;8703;48.996;9.594;2023-04-01T15:40:20;0.10;;;0.10;;
17175;SDS011;8703;48.996;9.594;2023-04-01T15:43:04;0.20;;;0.20;;
17175;SDS011;8703;48.996;9.594;2023-04-01T15:45:41;0.10;;;0.10;;
17175;SDS011;8703;48.996;9.594;2023-04-01T15:48:16;0.10;;;0.10;;
17175;SDS011;8703;48.996;9.594;2023-04-01T15:50:59;0.23;;;0.23;;
17175;SDS011;8703;48.996;9.594;2023-04-01T15:53:50;0.20;;;0.20;;
17175;SDS011;8703;48.996;9.594;2023-04-01T15:56:46;0.20;;;0.20;;
17175;SDS011;8703;48.996;9.594;2023-04-01T15:59:33;0.20;;;0.20;;
17175;SDS011;8703;48.996;9.594;2023-04-01T16:02:12;0.20;;;0.20;;
17175;SDS011;8703;48.996;9.594;2023-04-01T16:04:47;0.20;;;0.20;;
17175;SDS011;8703;48.996;9.594;2023-04-01T16:07:23;0.20;;;0.20;;
17175;SDS011;8703;48.996;9.594;2023-04-01T16:10:06;0.20;;;0.20;;
17175;SDS011;8703;48.996;9.594;2023-04-01T16:12:51;0.17;;;0.17;;
17175;SDS011;8703;48.996;9.594;2023-04-01T16:15:26;0.20;;;0.20;;
17175;SDS011;8703;48.996;9.594;2023-04-01T16:18:08;0.17;;;0.17;;
17175;SDS011;8703;48.996;9.594;2023-04-01T16:21:01;0.30;;;0.30;;
17175;SDS011;8703;48.996;9.594;2023-04-01T16:23:34;0.17;;;0.17;;
17175;SDS011;8703;48.996;9.594;2023-04-01T16:26:05;0.30;;;0.30;;
17175;SDS011;8703;48.996;9.594;2023-04-01T16:28:36;0.27;;;0.27;;
17175;SDS011;8703;48.996;9.594;2023-04-01T16:31:08;0.20;;;0.20;;
17175;SDS011;8703;48.996;9.594;2023-04-01T16:33:40;0.30;;;0.30;;
17175;SDS011;8703;48.996;9.594;2023-04-01T16:36:17;0.20;;;0.20;;
17175;SDS011;8703;48.996;9.594;2023-04-01T16:38:52;0.23;;;0.23;;
17175;SDS011;8703;48.996;9.594;2023-04-01T16:41:33;0.20;;;0.20;;
17175;SDS011;8703;48.996;9.594;2023-04-01T16:44:09;0.10;;;0.10;;